Time;durP1;ratioP1;P1;durP2;ratioP2;P2;SDS_P1;SDS_P2;PMS_P1;PMS_P2;Temp;Humidity;BMP_temperature;BMP_pressure;BME280_temperature;BME280_humidity;BME280_pressure;Samples;Min_cycle;Max_cycle;Signal;HPM_P1;HPM_P2
2023/03/23 00:01:55;;;;;;;1999.90;999.90;;;13.50;99.90;;;;;;5071715;28;20643;-71
2023/03/23 00:04:21;;;;;;;1999.90;999.90;;;13.50;99.90;;;;;;5071455;28;20175;-72
2023/03/23 00:06:46;;;;;;;1999.90;999.90;;;13.50;99.90;;;;;;5071339;28;20462;-72
2023/03/23 00:09:15;;;;;;;1999.90;999.90;;;13.60;99.90;;;;;;5071503;28;20175;-72
2023/03/23 00:11:41;;;;;;;1999.90;999.90;;;13.60;99.90;;;;;;5071749;28;20420;-72
2023/03/23 00:14:12;;;;;;;1999.90;999.90;;;13.60;99.90;;;;;;5071292;28;20436;-72
2023/03/23 00:16:40;;;;;;;1999.90;999.90;;;13.60;99.90;;;;;;5071360;28;20822;-71
2023/03/23 00:19:12;;;;;;;1999.90;999.90;;;13.60;99.90;;;;;;5071406;28;20474;-71
2023/03/23 00:21:39;;;;;;;1999.90;999.90;;;13.60;99.90;;;;;;5071433;28;20435;-71
2023/03/23 00:24:15;;;;;;;1999.90;999.90;;;13.50;99.90;;;;;;5071272;28;20423;-71
2023/03/23 00:26:43;;;;;;;1999.90;999.90;;;13.60;99.90;;;;;;5071266;28;20458;-72
2023/03/23 00:29:14;;;;;;;1999.90;999.90;;;13.60;99.90;;;;;;5071374;28;20931;-71
2023/03/23 00:31:46;;;;;;;1999.90;999.90;;;13.60;99.90;;;;;;5071494;28;20931;-71
2023/03/23 00:34:19;;;;;;;1999.90;999.90;;;13.60;99.90;;;;;;5071059;28;20396;-71
2023/03/23 00:36:50;;;;;;;1999.90;999.90;;;13.60;99.90;;;;;;5071196;28;20430;-71
2023/03/23 00:39:16;;;;;;;1999.90;999.90;;;13.60;99.90;;;;;;5071318;28;20410;-71
2023/03/23 00:41:43;;;;;;;1999.90;999.90;;;13.60;99.90;;;;;;5071183;28;20430;-71
2023/03/23 00:44:09;;;;;;;1999.90;999.90;;;13.60;99.90;;;;;;5073494;28;20398;-71
2023/03/23 00:46:44;;;;;;;1999.90;999.90;;;13.60;99.90;;;;;;5074726;28;20453;-71
2023/03/23 00:49:13;;;;;;;1999.90;999.90;;;13.60;99.90;;;;;;5074994;28;20174;-71
2023/03/23 00:51:40;;;;;;;1999.90;999.90;;;13.60;99.90;;;;;;5074735;28;20408;-70
2023/03/23 00:54:06;;;;;;;1999.90;999.90;;;13.60;99.90;;;;;;5074526;28;20489;-71
2023/03/23 00:56:31;;;;;;;1999.90;999.90;;;13.60;99.90;;;;;;5074423;28;20638;-71
2023/03/23 00:58:57;;;;;;;1999.90;999.90;;;13.60;99.90;;;;;;5074641;28;20443;-70
2023/03/23 01:01:22;;;;;;;1999.90;999.90;;;13.60;99.90;;;;;;5074598;28;20569;-71
2023/03/23 01:03:49;;;;;;;1999.90;999.90;;;13.60;99.90;;;;;;5074507;28;20169;-71
2023/03/23 01:06:15;;;;;;;1999.90;999.90;;;13.60;99.90;;;;;;5074161;28;20263;-71
2023/03/23 01:08:44;;;;;;;1999.90;999.90;;;13.60;99.90;;;;;;5074516;28;20840;-71
2023/03/23 01:11:15;;;;;;;1999.90;999.90;;;13.60;99.90;;;;;;5074409;28;20167;-71
2023/03/23 01:13:42;;;;;;;1999.90;999.90;;;13.60;99.90;;;;;;5074114;28;20404;-71
2023/03/23 01:16:09;;;;;;;1999.90;999.90;;;13.60;99.90;;;;;;5074361;28;20471;-71
2023/03/23 01:18:35;;;;;;;1999.90;999.90;;;13.60;99.90;;;;;;5074257;28;20402;-72
2023/03/23 01:21:06;;;;;;;1999.90;999.90;;;13.60;99.90;;;;;;5074309;28;20412;-72
2023/03/23 01:23:34;;;;;;;1999.90;999.90;;;13.60;99.90;;;;;;5073996;28;21141;-72
2023/03/23 01:26:04;;;;;;;1999.90;999.90;;;13.50;99.90;;;;;;5073836;28;20468;-72
2023/03/23 01:28:30;;;;;;;1999.90;999.90;;;13.40;99.90;;;;;;5074321;28;20408;-71
2023/03/23 01:31:00;;;;;;;1999.90;999.90;;;13.30;99.90;;;;;;5073991;28;20410;-71
2023/03/23 01:33:26;;;;;;;1999.90;999.90;;;13.30;99.90;;;;;;5073754;28;20395;-71
2023/03/23 01:35:52;;;;;;;1999.90;999.90;;;13.10;99.90;;;;;;5073762;28;20443;-71
2023/03/23 01:38:17;;;;;;;1999.90;999.90;;;12.90;99.90;;;;;;5073910;28;20530;-72
2023/03/23 01:40:43;;;;;;;1999.90;999.90;;;12.70;99.90;;;;;;5073578;28;20192;-71
2023/03/23 01:43:14;;;;;;;1999.90;999.90;;;12.50;99.90;;;;;;5073606;28;20554;-71
2023/03/23 01:45:40;;;;;;;1999.90;999.90;;;12.40;99.90;;;;;;5073821;28;20457;-70
2023/03/23 01:48:23;;;;;;;1999.90;999.90;;;12.30;99.90;;;;;;5073617;28;20492;-70
2023/03/23 01:50:55;;;;;;;1999.90;999.90;;;12.30;99.90;;;;;;5073657;28;20432;-70
2023/03/23 01:53:24;;;;;;;1999.90;999.90;;;12.20;99.90;;;;;;5073322;28;20410;-70
2023/03/23 01:55:53;;;;;;;1999.90;999.90;;;12.20;99.90;;;;;;5072443;28;20787;-70
2023/03/23 01:58:26;;;;;;;1999.90;999.90;;;12.30;99.90;;;;;;5073616;28;20411;-70
2023/03/23 02:00:55;;;;;;;1999.90;999.90;;;12.30;99.90;;;;;;5073621;28;20435;-70
2023/03/23 02:03:23;;;;;;;1999.90;999.90;;;12.40;99.90;;;;;;5073210;28;20461;-70
2023/03/23 02:05:49;;;;;;;1999.90;999.90;;;12.40;99.90;;;;;;5073057;28;21027;-69
2023/03/23 02:08:18;;;;;;;1999.90;999.90;;;12.40;99.90;;;;;;5073263;28;20450;-69
2023/03/23 02:10:43;;;;;;;1999.90;999.90;;;12.50;99.90;;;;;;5073155;28;20405;-70
2023/03/23 02:13:12;;;;;;;1999.90;999.90;;;12.50;99.90;;;;;;5073108;28;20396;-69
2023/03/23 02:15:56;;;;;;;1999.90;999.90;;;12.60;99.90;;;;;;5072988;28;20926;-70
2023/03/23 02:18:37;;;;;;;1999.90;999.90;;;12.60;99.90;;;;;;5073035;28;20401;-69
2023/03/23 02:21:08;;;;;;;1999.90;999.90;;;12.70;99.90;;;;;;5073034;28;20398;-70
2023/03/23 02:24:01;;;;;;;1999.90;999.90;;;12.70;99.90;;;;;;5072790;28;20408;-69
2023/03/23 02:26:58;;;;;;;1999.90;999.90;;;12.80;99.90;;;;;;5072663;28;20477;-70
2023/03/23 02:29:52;;;;;;;1999.90;999.90;;;12.70;99.90;;;;;;5072939;28;20429;-70
2023/03/23 02:32:39;;;;;;;1999.90;999.90;;;12.70;99.90;;;;;;5072764;28;20406;-69
2023/03/23 02:35:24;;;;;;;1999.90;999.90;;;12.80;99.90;;;;;;5072779;28;20492;-69
2023/03/23 02:38:00;;;;;;;1999.90;999.90;;;12.80;99.90;;;;;;5072776;28;20404;-69
2023/03/23 02:40:33;;;;;;;1999.90;999.90;;;12.80;99.90;;;;;;5072544;28;20426;-69
2023/03/23 02:42:59;;;;;;;1999.90;999.90;;;12.80;99.90;;;;;;5072500;28;20482;-70
2023/03/23 02:45:29;;;;;;;1999.90;999.90;;;12.80;99.90;;;;;;5072423;28;20964;-70
2023/03/23 02:47:56;;;;;;;1999.90;999.90;;;12.80;99.90;;;;;;5072400;28;20400;-70
2023/03/23 02:50:24;;;;;;;1999.90;999.90;;;12.80;99.90;;;;;;5072589;28;20840;-70
2023/03/23 02:52:51;;;;;;;1999.90;999.90;;;12.80;99.90;;;;;;5072279;28;20403;-70
2023/03/23 02:55:19;;;;;;;1999.90;999.90;;;13.00;99.90;;;;;;5072261;28;20458;-70
2023/03/23 02:57:46;;;;;;;1999.90;999.90;;;12.70;99.90;;;;;;5072184;28;20407;-70
2023/03/23 03:00:15;;;;;;;1999.90;999.90;;;12.80;99.90;;;;;;5072355;28;20414;-70
2023/03/23 03:02:47;;;;;;;1999.90;999.90;;;12.70;99.90;;;;;;5072064;28;20418;-70
2023/03/23 03:05:36;;;;;;;1999.90;999.90;;;12.80;99.90;;;;;;5072132;28;20445;-70
2023/03/23 03:08:18;;;;;;;1999.90;999.90;;;12.80;99.90;;;;;;5066520;28;20957;-70
2023/03/23 03:11:15;;;;;;;1999.90;999.90;;;12.80;99.90;;;;;;5072374;28;20401;-70
2023/03/23 03:13:59;;;;;;;1999.90;999.90;;;12.80;99.90;;;;;;5063630;28;20419;-70
2023/03/23 03:16:30;;;;;;;1999.90;999.90;;;12.90;99.90;;;;;;5071983;28;20429;-71
2023/03/23 03:19:25;;;;;;;1999.90;999.90;;;12.80;99.90;;;;;;5072092;28;20889;-71
2023/03/23 03:21:54;;;;;;;1999.90;999.90;;;12.80;99.90;;;;;;5072084;28;20414;-71
2023/03/23 03:24:22;;;;;;;1999.90;999.90;;;12.80;99.90;;;;;;5071907;28;20445;-70
2023/03/23 03:26:52;;;;;;;1999.90;999.90;;;12.90;99.90;;;;;;5071821;28;20527;-71
2023/03/23 03:29:22;;;;;;;1999.90;999.90;;;12.80;99.90;;;;;;5072052;28;20476;-71
2023/03/23 03:31:50;;;;;;;1999.90;999.90;;;12.90;99.90;;;;;;5071944;28;20885;-71
2023/03/23 03:34:17;;;;;;;1999.90;999.90;;;12.80;99.90;;;;;;5071737;28;20433;-70
2023/03/23 03:36:45;;;;;;;1999.90;999.90;;;12.90;99.90;;;;;;5071843;28;20795;-71
2023/03/23 03:39:14;;;;;;;1999.90;999.90;;;12.90;99.90;;;;;;5071849;28;20460;-71
2023/03/23 03:41:41;;;;;;;1999.90;999.90;;;12.90;99.90;;;;;;5071673;28;20439;-70
2023/03/23 03:44:07;;;;;;;1999.90;999.90;;;13.00;99.90;;;;;;5071673;28;20925;-70
2023/03/23 03:46:34;;;;;;;1999.90;999.90;;;12.90;99.90;;;;;;5071650;28;20482;-70
2023/03/23 03:49:01;;;;;;;1999.90;999.90;;;13.00;99.90;;;;;;5071890;28;20405;-71
2023/03/23 03:51:29;;;;;;;1999.90;999.90;;;13.00;99.90;;;;;;5072022;28;20486;-70
2023/03/23 03:53:55;;;;;;;1999.90;999.90;;;12.90;99.90;;;;;;5071511;28;20495;-70
2023/03/23 03:56:25;;;;;;;1999.90;999.90;;;12.90;99.90;;;;;;5071485;28;20518;-70
2023/03/23 03:58:51;;;;;;;1999.90;999.90;;;13.00;99.90;;;;;;5071944;28;20849;-70
2023/03/23 04:01:21;;;;;;;1999.90;999.90;;;13.00;99.90;;;;;;5071825;28;20435;-70
2023/03/23 04:03:47;;;;;;;1999.90;999.90;;;13.00;99.90;;;;;;5071503;28;20404;-71
2023/03/23 04:06:12;;;;;;;1999.90;999.90;;;13.00;99.90;;;;;;5071422;28;20451;-71
2023/03/23 04:08:39;;;;;;;1999.90;999.90;;;13.00;99.90;;;;;;5071539;28;20632;-71
2023/03/23 04:11:05;;;;;;;1999.90;999.90;;;13.00;99.90;;;;;;5071674;28;20188;-69
2023/03/23 04:13:31;;;;;;;1999.90;999.90;;;13.00;99.90;;;;;;5071541;28;20400;-70
2023/03/23 04:15:56;;;;;;;1999.90;999.90;;;13.00;99.90;;;;;;5071532;28;20930;-70
2023/03/23 04:18:23;;;;;;;1999.90;999.90;;;13.00;99.90;;;;;;5072887;28;20504;-71
2023/03/23 04:20:50;;;;;;;1999.90;999.90;;;13.10;99.90;;;;;;5075370;28;20232;-71
2023/03/23 04:23:19;;;;;;;1999.90;999.90;;;13.10;99.90;;;;;;5075032;28;20443;-70
2023/03/23 04:25:46;;;;;;;1999.90;999.90;;;13.10;99.90;;;;;;5075084;28;20458;-70
2023/03/23 04:28:12;;;;;;;1999.90;999.90;;;13.10;99.90;;;;;;5075203;28;20415;-71
2023/03/23 04:30:38;;;;;;;1999.90;999.90;;;13.10;99.90;;;;;;5075190;28;20467;-71
2023/03/23 04:33:04;;;;;;;1999.90;999.90;;;13.20;99.90;;;;;;5074955;28;20499;-71
2023/03/23 04:35:30;;;;;;;1999.90;999.90;;;13.20;99.90;;;;;;5075043;28;20204;-71
2023/03/23 04:37:56;;;;;;;1999.90;999.90;;;13.20;99.90;;;;;;5074821;28;20174;-70
2023/03/23 04:40:23;;;;;;;1999.90;999.90;;;13.20;99.90;;;;;;5074852;28;20468;-71
2023/03/23 04:42:51;;;;;;;1999.90;999.90;;;13.20;99.90;;;;;;5074915;28;20450;-71
2023/03/23 04:45:23;;;;;;;1999.90;999.90;;;13.20;99.90;;;;;;5074909;28;20544;-71
2023/03/23 04:47:57;;;;;;;1999.90;999.90;;;13.20;99.90;;;;;;5074786;28;20479;-71
2023/03/23 04:50:33;;;;;;;1999.90;999.90;;;13.20;99.90;;;;;;5074820;28;20398;-72
2023/03/23 04:53:03;;;;;;;1999.90;999.90;;;13.20;99.90;;;;;;5074801;28;20398;-71
2023/03/23 04:55:30;;;;;;;1999.90;999.90;;;13.20;99.90;;;;;;5074655;28;20412;-71
2023/03/23 04:58:00;;;;;;;1999.90;999.90;;;13.20;99.90;;;;;;5074550;28;20416;-71
2023/03/23 05:00:26;;;;;;;1999.90;999.90;;;13.20;99.90;;;;;;5074574;28;20495;-71
2023/03/23 05:02:52;;;;;;;1999.90;999.90;;;13.20;99.90;;;;;;5074292;28;20937;-70
2023/03/23 05:05:20;;;;;;;1999.90;999.90;;;13.30;99.90;;;;;;5074392;28;20817;-70
2023/03/23 05:07:46;;;;;;;1999.90;999.90;;;13.20;99.90;;;;;;5074798;28;20400;-70
2023/03/23 05:10:12;;;;;;;1999.90;999.90;;;13.10;99.90;;;;;;5074517;28;20456;-70
2023/03/23 05:12:38;;;;;;;1999.90;999.90;;;13.20;99.90;;;;;;5074191;28;20410;-70
2023/03/23 05:15:05;;;;;;;1999.90;999.90;;;13.10;99.90;;;;;;5074429;28;20399;-70
2023/03/23 05:17:32;;;;;;;1999.90;999.90;;;13.10;99.90;;;;;;5074136;28;20438;-70
2023/03/23 05:19:58;;;;;;;1999.90;999.90;;;13.10;99.90;;;;;;5074441;28;20407;-69
2023/03/23 05:22:26;;;;;;;1999.90;999.90;;;13.10;99.90;;;;;;5074010;28;20941;-69
2023/03/23 05:24:52;;;;;;;1999.90;999.90;;;13.10;99.90;;;;;;5074170;28;20403;-71
2023/03/23 05:27:18;;;;;;;1999.90;999.90;;;13.10;99.90;;;;;;5073911;28;20522;-71
2023/03/23 05:29:48;;;;;;;1999.90;999.90;;;13.10;99.90;;;;;;5073924;28;20175;-71
2023/03/23 05:32:14;;;;;;;1999.90;999.90;;;13.00;99.90;;;;;;5073786;28;20403;-70
2023/03/23 05:34:40;;;;;;;1999.90;999.90;;;13.00;99.90;;;;;;5074000;28;20422;-71
2023/03/23 05:37:05;;;;;;;1999.90;999.90;;;13.00;99.90;;;;;;5073922;28;20423;-71
2023/03/23 05:39:32;;;;;;;1999.90;999.90;;;13.00;99.90;;;;;;5073846;28;20286;-72
2023/03/23 05:41:58;;;;;;;1999.90;999.90;;;13.00;99.90;;;;;;5073767;28;20534;-71
2023/03/23 05:44:24;;;;;;;1999.90;999.90;;;13.00;99.90;;;;;;5073657;28;20777;-72
2023/03/23 05:46:50;;;;;;;1999.90;999.90;;;13.00;99.90;;;;;;5073505;28;20507;-71
2023/03/23 05:49:16;;;;;;;1999.90;999.90;;;12.90;99.90;;;;;;5073656;28;20189;-72
2023/03/23 05:51:43;;;;;;;1999.90;999.90;;;12.90;99.90;;;;;;5073770;28;20415;-71
2023/03/23 05:54:10;;;;;;;1999.90;999.90;;;13.00;99.90;;;;;;5073376;28;20406;-71
2023/03/23 05:56:36;;;;;;;1999.90;999.90;;;12.90;99.90;;;;;;5073475;28;20943;-71
2023/03/23 05:59:02;;;;;;;1999.90;999.90;;;13.00;99.90;;;;;;5073505;28;20407;-71
2023/03/23 06:01:28;;;;;;;1999.90;999.90;;;12.90;99.90;;;;;;5073590;28;20469;-71
2023/03/23 06:03:58;;;;;;;1999.90;999.90;;;12.90;99.90;;;;;;5073223;28;20416;-71
2023/03/23 06:06:28;;;;;;;1999.90;999.90;;;12.90;99.90;;;;;;5073014;28;20466;-71
2023/03/23 06:08:53;;;;;;;1999.90;999.90;;;12.90;99.90;;;;;;5073354;28;20401;-70
2023/03/23 06:11:19;;;;;;;1999.90;999.90;;;12.90;99.90;;;;;;5073282;28;20774;-71
2023/03/23 06:13:45;;;;;;;1999.90;999.90;;;12.90;99.90;;;;;;5073014;28;20173;-72
2023/03/23 06:16:11;;;;;;;1999.90;999.90;;;12.90;99.90;;;;;;5072955;28;20238;-71
2023/03/23 06:18:36;;;;;;;1999.90;999.90;;;13.00;99.90;;;;;;5073112;28;20635;-72
2023/03/23 06:21:06;;;;;;;1999.90;999.90;;;13.00;99.90;;;;;;5073049;28;20535;-71
2023/03/23 06:23:32;;;;;;;1999.90;999.90;;;13.00;99.90;;;;;;5072828;28;20193;-70
2023/03/23 06:26:01;;;;;;;1999.90;999.90;;;13.00;99.90;;;;;;5072641;28;20469;-71
2023/03/23 06:28:27;;;;;;;1999.90;999.90;;;13.00;99.90;;;;;;5072829;28;20461;-70
2023/03/23 06:30:53;;;;;;;1999.90;999.90;;;13.10;99.90;;;;;;5072862;28;20897;-71
2023/03/23 06:33:19;;;;;;;1999.90;999.90;;;13.00;99.90;;;;;;5072654;28;20166;-71
2023/03/23 06:35:45;;;;;;;1999.90;999.90;;;13.10;99.90;;;;;;5072632;28;20434;-69
2023/03/23 06:38:10;;;;;;;1999.90;999.90;;;13.10;99.90;;;;;;5072656;28;20403;-70
2023/03/23 06:40:36;;;;;;;1999.90;999.90;;;13.00;99.90;;;;;;5071964;28;20192;-71
2023/03/23 06:43:03;;;;;;;1999.90;999.90;;;13.10;99.90;;;;;;5072455;28;20264;-71
2023/03/23 06:45:29;;;;;;;1999.90;999.90;;;13.20;99.90;;;;;;5072618;28;20201;-71
2023/03/23 06:47:55;;;;;;;1999.90;999.90;;;13.20;99.90;;;;;;5072693;28;20932;-71
2023/03/23 06:50:21;;;;;;;1999.90;999.90;;;13.20;99.90;;;;;;5072478;28;20436;-70
2023/03/23 06:52:48;;;;;;;1999.90;999.90;;;13.20;99.90;;;;;;5072274;28;20239;-71
2023/03/23 06:55:14;;;;;;;1999.90;999.90;;;13.20;99.90;;;;;;5072207;28;20174;-69
2023/03/23 06:57:41;;;;;;;1999.90;999.90;;;13.30;99.90;;;;;;5072351;28;20408;-70
2023/03/23 07:00:13;;;;;;;1999.90;999.90;;;13.30;99.90;;;;;;5072239;28;20626;-71
2023/03/23 07:02:42;;;;;;;1999.90;999.90;;;13.30;99.90;;;;;;5072143;28;20874;-71
2023/03/23 07:05:09;;;;;;;1999.90;999.90;;;13.40;99.90;;;;;;5072181;28;20397;-70
2023/03/23 07:07:36;;;;;;;1999.90;999.90;;;13.30;99.90;;;;;;5072160;28;20448;-70
2023/03/23 07:10:03;;;;;;;1999.90;999.90;;;13.30;99.90;;;;;;5072191;28;20994;-70
2023/03/23 07:12:29;;;;;;;1999.90;999.90;;;13.40;99.90;;;;;;5072043;28;20931;-70
2023/03/23 07:14:55;;;;;;;1999.90;999.90;;;13.40;99.90;;;;;;5072137;28;20408;-70
2023/03/23 07:17:21;;;;;;;1999.90;999.90;;;13.50;99.90;;;;;;5072060;28;20201;-70
2023/03/23 07:19:47;;;;;;;1999.90;999.90;;;13.50;99.90;;;;;;5072121;28;20890;-69
2023/03/23 07:22:12;;;;;;;1999.90;999.90;;;13.50;99.90;;;;;;5072031;28;20401;-70
2023/03/23 07:24:38;;;;;;;1999.90;999.90;;;13.60;99.90;;;;;;5071991;28;20813;-70
2023/03/23 07:27:03;;;;;;;1999.90;999.90;;;13.60;99.90;;;;;;5071767;28;20205;-70
2023/03/23 07:29:29;;;;;;;1999.90;999.90;;;13.60;99.90;;;;;;5071984;28;20178;-71
2023/03/23 07:31:55;;;;;;;1999.90;999.90;;;13.70;99.90;;;;;;5071968;28;20168;-70
2023/03/23 07:34:21;;;;;;;1999.90;999.90;;;13.70;99.90;;;;;;5071670;28;20495;-70
2023/03/23 07:36:46;;;;;;;1999.90;999.90;;;13.70;99.90;;;;;;5071790;28;20204;-71
2023/03/23 07:39:13;;;;;;;1999.90;999.90;;;13.70;99.90;;;;;;5071858;28;20210;-71
2023/03/23 07:41:39;;;;;;;1999.90;999.90;;;13.80;99.90;;;;;;5071848;28;20577;-70
2023/03/23 07:44:05;;;;;;;1999.90;999.90;;;13.80;99.90;;;;;;5071645;28;20409;-70
2023/03/23 07:46:32;;;;;;;1999.90;999.90;;;13.80;99.90;;;;;;5071623;28;20343;-70
2023/03/23 07:48:58;;;;;;;1999.90;999.90;;;13.80;99.90;;;;;;5071788;28;20405;-70
2023/03/23 07:51:24;;;;;;;1999.90;999.90;;;13.90;99.90;;;;;;5071806;28;20937;-70
2023/03/23 07:53:51;;;;;;;1999.90;999.90;;;13.90;99.90;;;;;;5073778;28;20409;-71
2023/03/23 07:56:19;;;;;;;1999.90;999.90;;;13.90;99.90;;;;;;5075963;28;20435;-70
2023/03/23 07:58:46;;;;;;;1999.90;999.90;;;14.00;99.90;;;;;;5075955;28;20416;-70
2023/03/23 08:01:12;;;;;;;1999.90;999.90;;;14.00;99.90;;;;;;5075721;28;20417;-70
2023/03/23 08:03:38;;;;;;;1999.90;999.90;;;14.00;99.90;;;;;;5075604;28;20417;-71
2023/03/23 08:06:05;;;;;;;1999.90;999.90;;;14.00;99.90;;;;;;5075404;28;20631;-71
2023/03/23 08:08:31;;;;;;;1999.90;999.90;;;14.00;99.90;;;;;;5075870;28;20457;-71
2023/03/23 08:10:57;;;;;;;1999.90;999.90;;;14.00;99.90;;;;;;5075480;28;20496;-71
2023/03/23 08:13:22;;;;;;;1999.90;999.90;;;14.00;99.90;;;;;;5075355;28;20514;-71
2023/03/23 08:15:48;;;;;;;1999.90;999.90;;;14.10;99.90;;;;;;5075513;28;20576;-71
2023/03/23 08:18:14;;;;;;;1999.90;999.90;;;14.10;99.90;;;;;;5075347;28;20178;-71
2023/03/23 08:20:40;;;;;;;1999.90;999.90;;;14.10;99.90;;;;;;5075381;28;20179;-71
2023/03/23 08:23:06;;;;;;;1999.90;999.90;;;14.20;99.90;;;;;;5075328;28;20412;-71
2023/03/23 08:25:32;;;;;;;1999.90;999.90;;;14.20;99.90;;;;;;5075354;28;20713;-71
2023/03/23 08:28:01;;;;;;;1999.90;999.90;;;14.30;99.90;;;;;;5075078;28;20429;-71
2023/03/23 08:30:28;;;;;;;1999.90;999.90;;;14.30;99.90;;;;;;5075091;28;20404;-71
2023/03/23 08:32:54;;;;;;;1999.90;999.90;;;14.40;99.90;;;;;;5074962;28;20412;-71
2023/03/23 08:35:21;;;;;;;1999.90;999.90;;;14.10;99.90;;;;;;5075017;28;20417;-71
2023/03/23 08:37:50;;;;;;;1999.90;999.90;;;14.30;99.90;;;;;;5075162;28;20417;-72
2023/03/23 08:40:19;;;;;;;1999.90;999.90;;;14.40;99.90;;;;;;5074939;28;20902;-71
2023/03/23 08:42:46;;;;;;;1999.90;999.90;;;14.40;99.90;;;;;;5074817;28;20551;-71
2023/03/23 08:45:14;;;;;;;1999.90;999.90;;;14.40;99.90;;;;;;5074658;28;20424;-71
2023/03/23 08:47:40;;;;;;;1999.90;999.90;;;14.50;99.90;;;;;;5074741;28;20555;-71
2023/03/23 08:50:07;;;;;;;1999.90;999.90;;;14.60;99.90;;;;;;5075037;28;20452;-71
2023/03/23 08:52:33;;;;;;;1999.90;999.90;;;14.60;99.90;;;;;;5074759;28;20176;-70
2023/03/23 08:54:59;;;;;;;1999.90;999.90;;;14.70;99.90;;;;;;5074895;28;20885;-70
2023/03/23 08:57:25;;;;;;;1999.90;999.90;;;14.70;99.90;;;;;;5074594;28;20541;-72
2023/03/23 08:59:53;;;;;;;1999.90;999.90;;;14.60;99.90;;;;;;5074706;28;20177;-71
2023/03/23 09:02:20;;;;;;;1999.90;999.90;;;14.70;99.90;;;;;;5074372;28;20406;-73
2023/03/23 09:04:45;;;;;;;1999.90;999.90;;;14.70;99.90;;;;;;5073951;28;20415;-72
2023/03/23 09:07:14;;;;;;;1999.90;999.90;;;14.70;99.90;;;;;;5074285;28;20563;-71
2023/03/23 09:09:40;;;;;;;1999.90;999.90;;;14.80;99.90;;;;;;5074587;28;20171;-71
2023/03/23 09:12:08;;;;;;;1999.90;999.90;;;14.90;99.90;;;;;;5074453;28;20406;-72
2023/03/23 09:14:34;;;;;;;1999.90;999.90;;;14.90;99.90;;;;;;5074158;28;21086;-71
2023/03/23 09:17:00;;;;;;;1999.90;999.90;;;14.90;99.90;;;;;;5074103;28;20511;-72
2023/03/23 09:19:26;;;;;;;1999.90;999.90;;;15.00;99.90;;;;;;5073511;28;20419;-70
2023/03/23 09:21:51;;;;;;;1999.90;999.90;;;15.10;99.90;;;;;;5074198;28;20418;-71
2023/03/23 09:24:18;;;;;;;1999.90;999.90;;;15.00;99.90;;;;;;5073976;28;20175;-71
2023/03/23 09:26:45;;;;;;;1999.90;999.90;;;15.00;99.90;;;;;;5073788;28;20211;-71
2023/03/23 09:29:12;;;;;;;1999.90;999.90;;;15.00;99.90;;;;;;5073908;28;20401;-71
2023/03/23 09:31:39;;;;;;;1999.90;999.90;;;15.00;99.90;;;;;;5073893;28;20411;-71
2023/03/23 09:34:06;;;;;;;1999.90;999.90;;;14.90;99.90;;;;;;5073829;28;20497;-71
2023/03/23 09:36:31;;;;;;;1999.90;999.90;;;14.80;99.90;;;;;;5071099;28;20448;-71
2023/03/23 09:38:58;;;;;;;1999.90;999.90;;;14.90;99.90;;;;;;5069333;28;20442;-66
2023/03/23 09:41:46;;;;;;;1999.90;999.90;;;14.80;99.90;;;;;;5070130;28;20969;-68
2023/03/23 09:44:36;;;;;;;1999.90;999.90;;;14.80;99.90;;;;;;5069140;28;20409;-65
2023/03/23 09:47:14;;;;;;;1999.90;999.90;;;14.80;99.90;;;;;;5068993;28;20461;-68
2023/03/23 09:49:53;;;;;;;1999.90;999.90;;;14.80;99.90;;;;;;5069342;28;20463;-68
2023/03/23 09:52:19;;;;;;;1999.90;999.90;;;14.90;99.90;;;;;;5069178;28;20410;-68
2023/03/23 09:54:55;;;;;;;1999.90;999.90;;;14.90;99.90;;;;;;5068970;28;20443;-68
2023/03/23 09:57:32;;;;;;;1999.90;999.90;;;14.90;99.90;;;;;;5068726;28;20440;-70
2023/03/23 10:00:10;;;;;;;1999.90;999.90;;;15.00;99.90;;;;;;5068788;28;20502;-70
2023/03/23 10:02:55;;;;;;;1999.90;999.90;;;15.00;99.90;;;;;;5068693;28;20415;-69
2023/03/23 10:05:36;;;;;;;1999.90;999.90;;;15.00;99.90;;;;;;5068650;28;20935;-69
2023/03/23 10:08:12;;;;;;;1999.90;999.90;;;15.00;99.90;;;;;;5069196;28;21140;-72
2023/03/23 10:11:02;;;;;;;1999.90;999.90;;;15.00;99.90;;;;;;5069179;28;20890;-70
2023/03/23 10:13:36;;;;;;;1999.90;999.90;;;14.90;99.90;;;;;;5069352;28;20411;-69
2023/03/23 10:16:08;;;;;;;1999.90;999.90;;;14.80;99.90;;;;;;5068277;28;20575;-72
2023/03/23 10:18:58;;;;;;;1999.90;999.90;;;14.80;99.90;;;;;;5065799;28;21201;-71
2023/03/23 10:21:26;;;;;;;1999.90;999.90;;;14.80;99.90;;;;;;5068507;28;20428;-69
2023/03/23 10:23:54;;;;;;;1999.90;999.90;;;14.90;99.90;;;;;;5068929;28;20501;-73
2023/03/23 10:26:20;;;;;;;1999.90;999.90;;;14.90;99.90;;;;;;5067285;28;20549;-72
2023/03/23 10:28:54;;;;;;;1999.90;999.90;;;15.00;99.90;;;;;;5069309;28;20430;-73
2023/03/23 10:31:25;;;;;;;1999.90;999.90;;;15.10;99.90;;;;;;5065319;28;20577;-72
2023/03/23 10:33:55;;;;;;;1999.90;999.90;;;15.10;99.90;;;;;;5066029;28;20409;-72
2023/03/23 10:36:50;;;;;;;1999.90;999.90;;;15.10;99.90;;;;;;5065644;28;20434;-71
2023/03/23 10:39:22;;;;;;;1999.90;999.90;;;15.20;99.90;;;;;;5043910;28;20438;-71
2023/03/23 10:41:48;;;;;;;1999.90;999.90;;;15.40;99.90;;;;;;5065756;28;20446;-73
2023/03/23 10:44:21;;;;;;;1999.90;999.90;;;15.60;99.90;;;;;;5067517;28;20422;-71
2023/03/23 10:47:02;;;;;;;1999.90;999.90;;;15.80;99.90;;;;;;5066497;28;20205;-71
2023/03/23 10:49:34;;;;;;;1999.90;999.90;;;15.90;99.90;;;;;;5067120;28;20421;-71
2023/03/23 10:52:11;;;;;;;1999.90;999.90;;;15.90;99.90;;;;;;5067052;28;20422;-72
2023/03/23 10:54:40;;;;;;;1999.90;999.90;;;16.00;99.90;;;;;;5066261;28;20438;-72
2023/03/23 10:57:23;;;;;;;1999.90;999.90;;;16.10;99.90;;;;;;5066291;28;20440;-71
2023/03/23 10:59:49;;;;;;;1999.90;999.90;;;16.20;99.90;;;;;;5066575;28;20429;-70
2023/03/23 11:02:18;;;;;;;1999.90;999.90;;;16.20;99.90;;;;;;5066072;28;20416;-73
2023/03/23 11:04:56;;;;;;;1999.90;999.90;;;16.10;99.90;;;;;;5067304;28;20193;-72
2023/03/23 11:07:29;;;;;;;1999.90;999.90;;;16.20;99.90;;;;;;5066616;28;20475;-70
2023/03/23 11:09:58;;;;;;;1999.90;999.90;;;16.30;99.90;;;;;;5066608;28;21099;-70
2023/03/23 11:12:24;;;;;;;1999.90;999.90;;;16.30;99.90;;;;;;5066623;28;20420;-70
2023/03/23 11:14:51;;;;;;;1999.90;999.90;;;16.30;99.90;;;;;;5066553;28;20468;-70
2023/03/23 11:17:24;;;;;;;1999.90;999.90;;;16.10;99.90;;;;;;5066302;28;20461;-70
2023/03/23 11:19:50;;;;;;;1999.90;999.90;;;16.00;99.90;;;;;;5066493;28;20438;-70
2023/03/23 11:22:36;;;;;;;1999.90;999.90;;;16.00;99.90;;;;;;5066078;28;20960;-70
2023/03/23 11:25:05;;;;;;;1999.90;999.90;;;16.00;99.90;;;;;;5066627;28;20417;-71
2023/03/23 11:27:31;;;;;;;1999.90;999.90;;;15.90;99.90;;;;;;5065602;28;20445;-71
2023/03/23 11:30:09;;;;;;;1999.90;999.90;;;15.80;99.90;;;;;;5065859;28;20504;-72
2023/03/23 11:32:36;;;;;;;1999.90;999.90;;;15.60;99.90;;;;;;5065427;28;20432;-73
2023/03/23 11:35:14;;;;;;;1999.90;999.90;;;15.60;99.90;;;;;;5066861;28;20417;-72
2023/03/23 11:37:42;;;;;;;1999.90;999.90;;;15.50;99.90;;;;;;5066735;28;20464;-73
2023/03/23 11:40:10;;;;;;;1999.90;999.90;;;15.50;99.90;;;;;;5065217;28;20858;-72
2023/03/23 11:42:45;;;;;;;1999.90;999.90;;;15.60;99.90;;;;;;5065800;28;20508;-72
2023/03/23 11:45:25;;;;;;;1999.90;999.90;;;16.00;99.90;;;;;;5065832;28;20442;-73
2023/03/23 11:47:54;;;;;;;1999.90;999.90;;;16.50;99.90;;;;;;5065429;28;20477;-72
2023/03/23 11:50:22;;;;;;;1999.90;999.90;;;16.90;99.90;;;;;;5065802;28;20415;-72
2023/03/23 11:53:08;;;;;;;1999.90;999.90;;;17.10;99.90;;;;;;5066417;28;20861;-72
2023/03/23 11:55:45;;;;;;;1999.90;999.90;;;17.20;99.90;;;;;;5066081;28;20491;-72
2023/03/23 11:58:16;;;;;;;1999.90;999.90;;;17.80;99.90;;;;;;5065777;28;20418;-71
2023/03/23 12:00:56;;;;;;;1999.90;999.90;;;18.30;99.90;;;;;;5065976;28;21073;-73
2023/03/23 12:03:28;;;;;;;1999.90;999.90;;;18.50;99.90;;;;;;5066381;28;20436;-73
2023/03/23 12:06:08;;;;;;;1999.90;999.90;;;18.20;99.90;;;;;;5066618;28;21094;-73
2023/03/23 12:08:57;;;;;;;1999.90;999.90;;;18.20;99.90;;;;;;5065920;28;20428;-70
2023/03/23 12:11:32;;;;;;;1999.90;999.90;;;18.80;99.90;;;;;;5065676;28;20939;-72